sensor_id;sensor_type;location;lat;lon;timestamp;P1;durP1;ratioP1;P2;durP2;ratioP2
485;SDS011;229;48.734;9.340;2023-06-14T00:02:00;9.45;;;7.75;;
485;SDS011;229;48.734;9.340;2023-06-14T00:04:27;11.13;;;8.48;;
485;SDS011;229;48.734;9.340;2023-06-14T00:06:55;9.52;;;7.57;;
485;SDS011;229;48.734;9.340;2023-06-14T00:09:22;8.55;;;7.57;;
485;SDS011;229;48.734;9.340;2023-06-14T00:11:49;15.25;;;8.25;;
485;SDS011;229;48.734;9.340;2023-06-14T00:14:18;8.45;;;7.75;;
485;SDS011;229;48.734;9.340;2023-06-14T00:16:45;9.30;;;7.90;;
485;SDS011;229;48.734;9.340;2023-06-14T00:19:12;8.45;;;7.97;;
485;SDS011;229;48.734;9.340;2023-06-14T00:21:41;8.88;;;7.60;;
485;SDS011;229;48.734;9.340;2023-06-14T00:24:08;8.35;;;7.30;;
485;SDS011;229;48.734;9.340;2023-06-14T00:26:35;8.10;;;6.72;;
485;SDS011;229;48.734;9.340;2023-06-14T00:29:02;8.07;;;7.07;;
485;SDS011;229;48.734;9.340;2023-06-14T00:31:31;10.40;;;7.10;;
485;SDS011;229;48.734;9.340;2023-06-14T00:33:58;11.38;;;7.30;;
485;SDS011;229;48.734;9.340;2023-06-14T00:36:25;9.50;;;7.25;;
485;SDS011;229;48.734;9.340;2023-06-14T00:38:52;11.00;;;7.57;;
485;SDS011;229;48.734;9.340;2023-06-14T00:41:19;7.93;;;6.82;;
485;SDS011;229;48.734;9.340;2023-06-14T00:43:47;7.63;;;7.00;;
485;SDS011;229;48.734;9.340;2023-06-14T00:46:14;8.77;;;7.30;;
485;SDS011;229;48.734;9.340;2023-06-14T00:48:42;10.32;;;7.95;;
485;SDS011;229;48.734;9.340;2023-06-14T00:51:10;10.75;;;7.10;;
485;SDS011;229;48.734;9.340;2023-06-14T00:53:37;8.85;;;7.40;;
485;SDS011;229;48.734;9.340;2023-06-14T00:56:04;8.50;;;7.80;;
485;SDS011;229;48.734;9.340;2023-06-14T00:58:32;11.57;;;7.30;;
485;SDS011;229;48.734;9.340;2023-06-14T01:00:59;9.50;;;7.80;;
485;SDS011;229;48.734;9.340;2023-06-14T01:03:27;9.50;;;7.20;;
485;SDS011;229;48.734;9.340;2023-06-14T01:06:00;7.88;;;6.55;;
485;SDS011;229;48.734;9.340;2023-06-14T01:08:31;9.48;;;6.47;;
485;SDS011;229;48.734;9.340;2023-06-14T01:11:05;9.10;;;6.88;;
485;SDS011;229;48.734;9.340;2023-06-14T01:13:34;12.45;;;8.10;;
485;SDS011;229;48.734;9.340;2023-06-14T01:16:02;6.90;;;6.28;;
485;SDS011;229;48.734;9.340;2023-06-14T01:18:30;8.00;;;6.85;;
485;SDS011;229;48.734;9.340;2023-06-14T01:20:57;8.63;;;7.18;;
485;SDS011;229;48.734;9.340;2023-06-14T01:23:26;8.80;;;7.45;;
485;SDS011;229;48.734;9.340;2023-06-14T01:25:58;8.48;;;7.50;;
485;SDS011;229;48.734;9.340;2023-06-14T01:28:28;8.40;;;6.95;;
485;SDS011;229;48.734;9.340;2023-06-14T01:30:58;17.27;;;7.80;;
485;SDS011;229;48.734;9.340;2023-06-14T01:33:29;8.90;;;6.90;;
485;SDS011;229;48.734;9.340;2023-06-14T01:35:56;7.30;;;6.90;;
485;SDS011;229;48.734;9.340;2023-06-14T01:38:26;9.40;;;7.10;;
485;SDS011;229;48.734;9.340;2023-06-14T01:40:55;6.80;;;6.38;;
485;SDS011;229;48.734;9.340;2023-06-14T01:43:24;6.57;;;6.20;;
485;SDS011;229;48.734;9.340;2023-06-14T01:45:52;8.10;;;6.60;;
485;SDS011;229;48.734;9.340;2023-06-14T01:48:20;8.20;;;6.40;;
485;SDS011;229;48.734;9.340;2023-06-14T01:50:47;8.63;;;7.15;;
485;SDS011;229;48.734;9.340;2023-06-14T01:53:15;7.65;;;6.80;;
485;SDS011;229;48.734;9.340;2023-06-14T01:55:44;7.50;;;6.68;;
485;SDS011;229;48.734;9.340;2023-06-14T01:58:13;7.13;;;6.70;;
485;SDS011;229;48.734;9.340;2023-06-14T02:00:41;13.05;;;7.10;;
485;SDS011;229;48.734;9.340;2023-06-14T02:03:10;9.18;;;6.63;;
485;SDS011;229;48.734;9.340;2023-06-14T02:05:38;10.50;;;6.10;;
485;SDS011;229;48.734;9.340;2023-06-14T02:08:05;9.65;;;6.90;;
485;SDS011;229;48.734;9.340;2023-06-14T02:10:33;7.53;;;6.65;;
485;SDS011;229;48.734;9.340;2023-06-14T02:13:01;7.10;;;6.05;;
485;SDS011;229;48.734;9.340;2023-06-14T02:15:28;10.45;;;7.35;;
485;SDS011;229;48.734;9.340;2023-06-14T02:17:59;8.13;;;6.97;;
485;SDS011;229;48.734;9.340;2023-06-14T02:20:27;7.30;;;6.85;;
485;SDS011;229;48.734;9.340;2023-06-14T02:22:54;11.30;;;8.00;;
485;SDS011;229;48.734;9.340;2023-06-14T02:25:21;7.35;;;7.00;;
485;SDS011;229;48.734;9.340;2023-06-14T02:27:48;8.93;;;6.65;;
485;SDS011;229;48.734;9.340;2023-06-14T02:30:17;8.60;;;7.00;;
485;SDS011;229;48.734;9.340;2023-06-14T02:32:44;8.10;;;6.32;;
485;SDS011;229;48.734;9.340;2023-06-14T02:35:13;9.35;;;7.07;;
485;SDS011;229;48.734;9.340;2023-06-14T02:37:41;8.00;;;6.78;;
485;SDS011;229;48.734;9.340;2023-06-14T02:40:08;9.90;;;6.40;;
485;SDS011;229;48.734;9.340;2023-06-14T02:42:36;9.43;;;6.43;;
485;SDS011;229;48.734;9.340;2023-06-14T02:45:03;17.27;;;13.40;;
485;SDS011;229;48.734;9.340;2023-06-14T02:47:32;7.68;;;6.90;;
485;SDS011;229;48.734;9.340;2023-06-14T02:49:59;8.88;;;6.90;;
485;SDS011;229;48.734;9.340;2023-06-14T02:52:27;7.90;;;6.90;;
485;SDS011;229;48.734;9.340;2023-06-14T02:54:54;11.82;;;7.38;;
485;SDS011;229;48.734;9.340;2023-06-14T02:57:21;10.02;;;7.22;;
485;SDS011;229;48.734;9.340;2023-06-14T02:59:49;12.00;;;7.03;;
485;SDS011;229;48.734;9.340;2023-06-14T03:02:17;5.97;;;5.68;;
485;SDS011;229;48.734;9.340;2023-06-14T03:04:46;8.43;;;7.28;;
485;SDS011;229;48.734;9.340;2023-06-14T03:07:13;8.57;;;7.60;;
485;SDS011;229;48.734;9.340;2023-06-14T03:09:44;10.93;;;7.88;;
485;SDS011;229;48.734;9.340;2023-06-14T03:12:12;9.45;;;8.10;;
485;SDS011;229;48.734;9.340;2023-06-14T03:14:40;10.50;;;8.23;;
485;SDS011;229;48.734;9.340;2023-06-14T03:17:08;7.97;;;7.30;;
485;SDS011;229;48.734;9.340;2023-06-14T03:19:35;8.38;;;7.55;;
485;SDS011;229;48.734;9.340;2023-06-14T03:22:04;8.30;;;7.90;;
485;SDS011;229;48.734;9.340;2023-06-14T03:24:32;7.85;;;6.95;;
485;SDS011;229;48.734;9.340;2023-06-14T03:27:01;8.45;;;7.50;;
485;SDS011;229;48.734;9.340;2023-06-14T03:29:28;8.32;;;7.28;;
485;SDS011;229;48.734;9.340;2023-06-14T03:31:57;11.68;;;8.90;;
485;SDS011;229;48.734;9.340;2023-06-14T03:34:24;8.73;;;8.23;;
485;SDS011;229;48.734;9.340;2023-06-14T03:36:51;7.38;;;6.90;;
485;SDS011;229;48.734;9.340;2023-06-14T03:39:20;7.30;;;6.90;;
485;SDS011;229;48.734;9.340;2023-06-14T03:41:47;8.70;;;7.53;;
485;SDS011;229;48.734;9.340;2023-06-14T03:44:15;8.10;;;7.18;;
485;SDS011;229;48.734;9.340;2023-06-14T03:46:43;8.20;;;7.18;;
485;SDS011;229;48.734;9.340;2023-06-14T03:49:10;10.98;;;8.05;;
485;SDS011;229;48.734;9.340;2023-06-14T03:51:38;10.48;;;7.82;;
485;SDS011;229;48.734;9.340;2023-06-14T03:54:05;12.48;;;8.10;;
485;SDS011;229;48.734;9.340;2023-06-14T03:56:34;8.68;;;7.40;;
485;SDS011;229;48.734;9.340;2023-06-14T03:59:01;10.05;;;7.20;;
485;SDS011;229;48.734;9.340;2023-06-14T04:01:28;9.55;;;7.00;;
485;SDS011;229;48.734;9.340;2023-06-14T04:03:56;9.10;;;8.25;;
485;SDS011;229;48.734;9.340;2023-06-14T04:06:23;9.63;;;7.97;;
485;SDS011;229;48.734;9.340;2023-06-14T04:08:57;9.55;;;8.05;;
485;SDS011;229;48.734;9.340;2023-06-14T04:11:27;8.15;;;7.75;;
485;SDS011;229;48.734;9.340;2023-06-14T04:13:56;8.02;;;7.10;;
485;SDS011;229;48.734;9.340;2023-06-14T04:16:23;8.90;;;8.27;;
485;SDS011;229;48.734;9.340;2023-06-14T04:18:50;9.70;;;8.30;;
485;SDS011;229;48.734;9.340;2023-06-14T04:21:18;9.02;;;8.52;;
485;SDS011;229;48.734;9.340;2023-06-14T04:23:46;8.15;;;7.75;;
485;SDS011;229;48.734;9.340;2023-06-14T04:26:13;10.38;;;7.95;;
485;SDS011;229;48.734;9.340;2023-06-14T04:28:41;8.70;;;7.70;;
485;SDS011;229;48.734;9.340;2023-06-14T04:31:11;10.68;;;8.32;;
485;SDS011;229;48.734;9.340;2023-06-14T04:33:39;8.68;;;7.82;;
485;SDS011;229;48.734;9.340;2023-06-14T04:36:10;9.75;;;7.65;;
485;SDS011;229;48.734;9.340;2023-06-14T04:38:38;11.35;;;7.47;;
485;SDS011;229;48.734;9.340;2023-06-14T04:41:06;9.50;;;7.43;;
485;SDS011;229;48.734;9.340;2023-06-14T04:43:36;7.53;;;6.80;;
485;SDS011;229;48.734;9.340;2023-06-14T04:46:04;12.65;;;7.70;;
485;SDS011;229;48.734;9.340;2023-06-14T04:48:38;10.27;;;8.25;;
485;SDS011;229;48.734;9.340;2023-06-14T04:51:06;7.35;;;6.75;;
485;SDS011;229;48.734;9.340;2023-06-14T04:53:33;9.60;;;7.63;;
485;SDS011;229;48.734;9.340;2023-06-14T04:56:00;11.30;;;7.30;;
485;SDS011;229;48.734;9.340;2023-06-14T04:58:28;10.48;;;6.95;;
485;SDS011;229;48.734;9.340;2023-06-14T05:00:55;12.27;;;9.38;;
485;SDS011;229;48.734;9.340;2023-06-14T05:03:24;10.68;;;8.52;;
485;SDS011;229;48.734;9.340;2023-06-14T05:05:53;12.20;;;9.90;;
485;SDS011;229;48.734;9.340;2023-06-14T05:08:20;8.90;;;8.40;;
485;SDS011;229;48.734;9.340;2023-06-14T05:10:49;10.60;;;9.32;;
485;SDS011;229;48.734;9.340;2023-06-14T05:13:17;10.75;;;9.48;;
485;SDS011;229;48.734;9.340;2023-06-14T05:15:44;10.02;;;8.85;;
485;SDS011;229;48.734;9.340;2023-06-14T05:18:12;9.45;;;8.73;;
485;SDS011;229;48.734;9.340;2023-06-14T05:20:40;10.55;;;9.55;;
485;SDS011;229;48.734;9.340;2023-06-14T05:23:09;11.98;;;9.20;;
485;SDS011;229;48.734;9.340;2023-06-14T05:25:40;14.70;;;10.95;;
485;SDS011;229;48.734;9.340;2023-06-14T05:28:07;13.05;;;9.88;;
485;SDS011;229;48.734;9.340;2023-06-14T05:30:34;15.82;;;9.30;;
485;SDS011;229;48.734;9.340;2023-06-14T05:33:01;15.50;;;9.38;;
485;SDS011;229;48.734;9.340;2023-06-14T05:35:29;18.30;;;9.43;;
485;SDS011;229;48.734;9.340;2023-06-14T05:37:56;16.55;;;11.85;;
485;SDS011;229;48.734;9.340;2023-06-14T05:40:24;11.50;;;10.45;;
485;SDS011;229;48.734;9.340;2023-06-14T05:42:52;13.52;;;9.95;;
485;SDS011;229;48.734;9.340;2023-06-14T05:45:19;16.52;;;10.85;;
485;SDS011;229;48.734;9.340;2023-06-14T05:47:46;19.52;;;10.20;;
485;SDS011;229;48.734;9.340;2023-06-14T05:50:13;11.25;;;9.98;;
485;SDS011;229;48.734;9.340;2023-06-14T05:52:40;12.15;;;9.82;;
485;SDS011;229;48.734;9.340;2023-06-14T05:55:08;14.57;;;10.60;;
485;SDS011;229;48.734;9.340;2023-06-14T05:57:38;10.55;;;9.98;;
485;SDS011;229;48.734;9.340;2023-06-14T06:00:07;12.50;;;10.57;;
485;SDS011;229;48.734;9.340;2023-06-14T06:02:36;13.85;;;11.70;;
485;SDS011;229;48.734;9.340;2023-06-14T06:05:03;12.70;;;9.80;;
485;SDS011;229;48.734;9.340;2023-06-14T06:07:31;10.80;;;9.50;;
485;SDS011;229;48.734;9.340;2023-06-14T06:09:58;15.65;;;10.60;;
485;SDS011;229;48.734;9.340;2023-06-14T06:12:25;10.73;;;8.77;;
485;SDS011;229;48.734;9.340;2023-06-14T06:14:54;11.52;;;9.80;;
485;SDS011;229;48.734;9.340;2023-06-14T06:17:21;15.05;;;10.65;;
485;SDS011;229;48.734;9.340;2023-06-14T06:19:48;16.15;;;11.32;;
485;SDS011;229;48.734;9.340;2023-06-14T06:22:15;16.75;;;10.23;;
485;SDS011;229;48.734;9.340;2023-06-14T06:24:43;15.00;;;10.40;;
485;SDS011;229;48.734;9.340;2023-06-14T06:27:10;13.30;;;9.73;;
485;SDS011;229;48.734;9.340;2023-06-14T06:29:38;18.05;;;11.13;;
485;SDS011;229;48.734;9.340;2023-06-14T06:32:07;13.23;;;9.87;;
485;SDS011;229;48.734;9.340;2023-06-14T06:34:34;14.23;;;9.00;;
485;SDS011;229;48.734;9.340;2023-06-14T06:37:02;14.17;;;9.63;;
485;SDS011;229;48.734;9.340;2023-06-14T06:39:29;13.90;;;8.93;;
485;SDS011;229;48.734;9.340;2023-06-14T06:41:56;11.83;;;9.23;;
485;SDS011;229;48.734;9.340;2023-06-14T06:44:24;15.30;;;9.07;;
485;SDS011;229;48.734;9.340;2023-06-14T06:46:51;12.33;;;9.10;;
485;SDS011;229;48.734;9.340;2023-06-14T06:49:19;14.40;;;8.27;;
485;SDS011;229;48.734;9.340;2023-06-14T06:51:59;15.27;;;9.13;;
485;SDS011;229;48.734;9.340;2023-06-14T06:54:27;11.57;;;9.27;;
485;SDS011;229;48.734;9.340;2023-06-14T06:56:54;11.63;;;10.17;;
485;SDS011;229;48.734;9.340;2023-06-14T06:59:21;14.07;;;9.60;;
485;SDS011;229;48.734;9.340;2023-06-14T07:01:48;9.90;;;9.20;;
485;SDS011;229;48.734;9.340;2023-06-14T07:04:15;19.67;;;8.97;;
485;SDS011;229;48.734;9.340;2023-06-14T07:06:45;11.53;;;8.77;;
485;SDS011;229;48.734;9.340;2023-06-14T07:09:13;11.17;;;9.30;;
485;SDS011;229;48.734;9.340;2023-06-14T07:11:41;10.60;;;9.00;;
485;SDS011;229;48.734;9.340;2023-06-14T07:14:08;11.63;;;7.63;;
485;SDS011;229;48.734;9.340;2023-06-14T07:16:35;12.00;;;8.53;;
485;SDS011;229;48.734;9.340;2023-06-14T07:19:02;9.40;;;8.13;;
485;SDS011;229;48.734;9.340;2023-06-14T07:21:30;13.30;;;7.50;;
485;SDS011;229;48.734;9.340;2023-06-14T07:23:58;10.73;;;7.80;;
485;SDS011;229;48.734;9.340;2023-06-14T07:26:25;12.33;;;7.40;;
485;SDS011;229;48.734;9.340;2023-06-14T07:28:53;7.50;;;7.07;;
485;SDS011;229;48.734;9.340;2023-06-14T07:31:20;7.73;;;7.03;;
485;SDS011;229;48.734;9.340;2023-06-14T07:33:47;7.20;;;6.73;;
485;SDS011;229;48.734;9.340;2023-06-14T07:36:14;8.00;;;6.57;;
485;SDS011;229;48.734;9.340;2023-06-14T07:38:42;8.13;;;7.73;;
485;SDS011;229;48.734;9.340;2023-06-14T07:41:11;12.33;;;7.37;;
485;SDS011;229;48.734;9.340;2023-06-14T07:43:38;8.63;;;7.40;;
485;SDS011;229;48.734;9.340;2023-06-14T07:46:06;9.77;;;7.17;;
485;SDS011;229;48.734;9.340;2023-06-14T07:48:34;6.90;;;6.50;;
485;SDS011;229;48.734;9.340;2023-06-14T07:51:01;7.63;;;7.23;;
485;SDS011;229;48.734;9.340;2023-06-14T07:53:28;8.43;;;7.63;;
485;SDS011;229;48.734;9.340;2023-06-14T07:55:56;8.37;;;7.10;;
485;SDS011;229;48.734;9.340;2023-06-14T07:58:25;7.63;;;7.10;;
485;SDS011;229;48.734;9.340;2023-06-14T08:00:52;8.17;;;6.83;;
485;SDS011;229;48.734;9.340;2023-06-14T08:03:19;7.00;;;6.30;;
485;SDS011;229;48.734;9.340;2023-06-14T08:05:47;10.30;;;7.30;;
485;SDS011;229;48.734;9.340;2023-06-14T08:08:15;10.10;;;6.17;;
485;SDS011;229;48.734;9.340;2023-06-14T08:10:42;15.30;;;7.10;;
485;SDS011;229;48.734;9.340;2023-06-14T08:13:10;8.50;;;7.27;;
485;SDS011;229;48.734;9.340;2023-06-14T08:15:38;9.13;;;6.70;;
485;SDS011;229;48.734;9.340;2023-06-14T08:18:05;8.33;;;7.20;;
485;SDS011;229;48.734;9.340;2023-06-14T08:20:32;8.87;;;7.43;;
485;SDS011;229;48.734;9.340;2023-06-14T08:23:00;7.50;;;7.10;;
485;SDS011;229;48.734;9.340;2023-06-14T08:25:27;9.50;;;7.33;;
485;SDS011;229;48.734;9.340;2023-06-14T08:27:54;9.43;;;6.80;;
485;SDS011;229;48.734;9.340;2023-06-14T08:30:21;7.03;;;6.63;;
485;SDS011;229;48.734;9.340;2023-06-14T08:32:50;11.87;;;6.80;;
485;SDS011;229;48.734;9.340;2023-06-14T08:35:20;7.27;;;6.87;;
485;SDS011;229;48.734;9.340;2023-06-14T08:37:47;8.93;;;7.63;;
485;SDS011;229;48.734;9.340;2023-06-14T08:40:18;7.63;;;7.23;;
485;SDS011;229;48.734;9.340;2023-06-14T08:42:47;9.93;;;7.07;;
485;SDS011;229;48.734;9.340;2023-06-14T08:45:15;9.70;;;7.33;;
485;SDS011;229;48.734;9.340;2023-06-14T08:47:42;7.57;;;6.70;;
485;SDS011;229;48.734;9.340;2023-06-14T08:50:11;8.80;;;6.93;;
485;SDS011;229;48.734;9.340;2023-06-14T08:52:41;8.87;;;7.00;;
485;SDS011;229;48.734;9.340;2023-06-14T08:55:15;10.07;;;6.87;;
485;SDS011;229;48.734;9.340;2023-06-14T08:57:45;6.87;;;6.50;;
485;SDS011;229;48.734;9.340;2023-06-14T09:00:14;10.40;;;7.20;;
485;SDS011;229;48.734;9.340;2023-06-14T09:02:42;7.70;;;7.30;;
485;SDS011;229;48.734;9.340;2023-06-14T09:05:11;8.70;;;7.27;;
485;SDS011;229;48.734;9.340;2023-06-14T09:07:39;7.90;;;7.50;;
485;SDS011;229;48.734;9.340;2023-06-14T09:10:08;10.47;;;7.10;;
485;SDS011;229;48.734;9.340;2023-06-14T09:12:38;7.40;;;7.03;;
485;SDS011;229;48.734;9.340;2023-06-14T09:15:06;7.43;;;6.97;;
485;SDS011;229;48.734;9.340;2023-06-14T09:17:34;7.80;;;7.27;;
485;SDS011;229;48.734;9.340;2023-06-14T09:20:01;7.40;;;6.90;;
485;SDS011;229;48.734;9.340;2023-06-14T09:22:35;9.30;;;6.70;;
485;SDS011;229;48.734;9.340;2023-06-14T09:25:03;12.70;;;7.13;;
485;SDS011;229;48.734;9.340;2023-06-14T09:27:31;6.93;;;6.53;;
485;SDS011;229;48.734;9.340;2023-06-14T09:29:58;10.07;;;6.80;;
485;SDS011;229;48.734;9.340;2023-06-14T09:32:25;15.53;;;7.07;;
485;SDS011;229;48.734;9.340;2023-06-14T09:34:52;10.03;;;6.70;;
485;SDS011;229;48.734;9.340;2023-06-14T09:37:26;7.73;;;6.30;;
485;SDS011;229;48.734;9.340;2023-06-14T09:39:56;6.97;;;5.83;;
485;SDS011;229;48.734;9.340;2023-06-14T09:42:23;6.20;;;5.90;;
485;SDS011;229;48.734;9.340;2023-06-14T09:44:51;11.23;;;7.13;;
485;SDS011;229;48.734;9.340;2023-06-14T09:47:19;7.63;;;6.87;;
485;SDS011;229;48.734;9.340;2023-06-14T09:49:46;11.47;;;6.80;;
485;SDS011;229;48.734;9.340;2023-06-14T09:52:14;10.93;;;6.83;;
485;SDS011;229;48.734;9.340;2023-06-14T09:54:42;8.73;;;6.17;;
485;SDS011;229;48.734;9.340;2023-06-14T09:57:13;8.90;;;6.90;;
485;SDS011;229;48.734;9.340;2023-06-14T09:59:41;8.00;;;6.73;;
485;SDS011;229;48.734;9.340;2023-06-14T10:02:11;9.30;;;7.30;;
485;SDS011;229;48.734;9.340;2023-06-14T10:04:39;7.30;;;6.80;;
485;SDS011;229;48.734;9.340;2023-06-14T10:07:11;9.17;;;7.40;;
485;SDS011;229;48.734;9.340;2023-06-14T10:09:38;9.83;;;7.20;;
485;SDS011;229;48.734;9.340;2023-06-14T10:12:09;12.40;;;8.07;;
485;SDS011;229;48.734;9.340;2023-06-14T10:14:42;9.10;;;6.80;;
485;SDS011;229;48.734;9.340;2023-06-14T10:17:10;7.17;;;6.77;;
485;SDS011;229;48.734;9.340;2023-06-14T10:19:40;12.80;;;6.30;;
485;SDS011;229;48.734;9.340;2023-06-14T10:22:10;9.03;;;6.93;;
485;SDS011;229;48.734;9.340;2023-06-14T10:24:40;7.67;;;6.40;;
485;SDS011;229;48.734;9.340;2023-06-14T10:27:08;6.90;;;6.50;;
485;SDS011;229;48.734;9.340;2023-06-14T10:29:42;8.70;;;7.40;;
485;SDS011;229;48.734;9.340;2023-06-14T10:32:28;8.97;;;7.40;;
485;SDS011;229;48.734;9.340;2023-06-14T10:34:56;6.73;;;6.33;;
485;SDS011;229;48.734;9.340;2023-06-14T10:37:23;9.20;;;6.70;;
485;SDS011;229;48.734;9.340;2023-06-14T10:39:50;8.80;;;7.00;;
485;SDS011;229;48.734;9.340;2023-06-14T10:42:18;9.97;;;7.07;;
485;SDS011;229;48.734;9.340;2023-06-14T10:44:50;9.33;;;6.40;;
485;SDS011;229;48.734;9.340;2023-06-14T10:47:22;9.20;;;6.30;;
485;SDS011;229;48.734;9.340;2023-06-14T10:49:50;12.13;;;6.87;;
485;SDS011;229;48.734;9.340;2023-06-14T10:52:20;13.63;;;6.37;;
485;SDS011;229;48.734;9.340;2023-06-14T10:55:05;10.20;;;6.30;;
485;SDS011;229;48.734;9.340;2023-06-14T10:57:34;12.90;;;6.60;;
485;SDS011;229;48.734;9.340;2023-06-14T11:00:03;8.07;;;7.17;;
485;SDS011;229;48.734;9.340;2023-06-14T11:05:23;9.57;;;7.43;;
485;SDS011;229;48.734;9.340;2023-06-14T11:07:55;9.13;;;6.80;;
485;SDS011;229;48.734;9.340;2023-06-14T11:10:26;8.40;;;7.23;;
485;SDS011;229;48.734;9.340;2023-06-14T11:12:59;14.37;;;6.90;;
485;SDS011;229;48.734;9.340;2023-06-14T11:15:29;12.83;;;7.00;;
485;SDS011;229;48.734;9.340;2023-06-14T11:17:57;8.17;;;7.17;;
485;SDS011;229;48.734;9.340;2023-06-14T11:20:24;8.17;;;7.33;;
485;SDS011;229;48.734;9.340;2023-06-14T11:22:52;7.43;;;6.53;;
485;SDS011;229;48.734;9.340;2023-06-14T11:25:19;12.90;;;7.33;;
485;SDS011;229;48.734;9.340;2023-06-14T11:27:48;9.37;;;6.47;;
485;SDS011;229;48.734;9.340;2023-06-14T11:30:16;8.30;;;6.37;;
485;SDS011;229;48.734;9.340;2023-06-14T11:32:47;6.93;;;6.47;;
485;SDS011;229;48.734;9.340;2023-06-14T11:35:14;7.10;;;6.70;;
485;SDS011;229;48.734;9.340;2023-06-14T11:37:42;9.50;;;6.77;;
485;SDS011;229;48.734;9.340;2023-06-14T11:40:10;9.03;;;6.50;;
485;SDS011;229;48.734;9.340;2023-06-14T11:42:38;8.90;;;6.60;;
485;SDS011;229;48.734;9.340;2023-06-14T11:45:07;9.97;;;6.20;;
485;SDS011;229;48.734;9.340;2023-06-14T11:47:35;9.40;;;6.80;;
485;SDS011;229;48.734;9.340;2023-06-14T11:50:04;9.80;;;6.50;;
485;SDS011;229;48.734;9.340;2023-06-14T11:52:32;6.80;;;6.40;;
485;SDS011;229;48.734;9.340;2023-06-14T11:54:59;10.47;;;6.43;;
485;SDS011;229;48.734;9.340;2023-06-14T11:57:29;8.83;;;7.10;;
485;SDS011;229;48.734;9.340;2023-06-14T11:59:56;11.13;;;6.90;;
485;SDS011;229;48.734;9.340;2023-06-14T12:02:24;12.37;;;7.07;;
485;SDS011;229;48.734;9.340;2023-06-14T12:04:54;8.80;;;6.20;;
485;SDS011;229;48.734;9.340;2023-06-14T12:07:23;8.40;;;6.53;;
485;SDS011;229;48.734;9.340;2023-06-14T12:10:04;10.03;;;5.97;;
485;SDS011;229;48.734;9.340;2023-06-14T12:12:34;7.80;;;6.50;;
485;SDS011;229;48.734;9.340;2023-06-14T12:15:02;9.03;;;7.20;;
485;SDS011;229;48.734;9.340;2023-06-14T12:17:32;7.30;;;6.50;;
485;SDS011;229;48.734;9.340;2023-06-14T12:20:04;8.40;;;7.07;;
485;SDS011;229;48.734;9.340;2023-06-14T12:22:34;7.17;;;6.77;;
485;SDS011;229;48.734;9.340;2023-06-14T12:25:01;12.23;;;6.53;;
485;SDS011;229;48.734;9.340;2023-06-14T12:27:29;8.30;;;6.70;;
485;SDS011;229;48.734;9.340;2023-06-14T12:29:59;8.20;;;6.90;;
485;SDS011;229;48.734;9.340;2023-06-14T12:32:27;12.53;;;6.50;;
485;SDS011;229;48.734;9.340;2023-06-14T12:34:55;8.27;;;6.73;;
485;SDS011;229;48.734;9.340;2023-06-14T12:37:22;7.23;;;6.83;;
485;SDS011;229;48.734;9.340;2023-06-14T12:39:51;10.17;;;7.37;;
485;SDS011;229;48.734;9.340;2023-06-14T12:42:18;8.97;;;7.47;;
485;SDS011;229;48.734;9.340;2023-06-14T12:44:45;11.27;;;6.83;;
485;SDS011;229;48.734;9.340;2023-06-14T12:47:12;9.07;;;7.17;;
485;SDS011;229;48.734;9.340;2023-06-14T12:49:40;6.47;;;6.07;;
485;SDS011;229;48.734;9.340;2023-06-14T12:52:07;8.23;;;6.10;;
485;SDS011;229;48.734;9.340;2023-06-14T12:54:35;8.43;;;6.33;;
485;SDS011;229;48.734;9.340;2023-06-14T12:57:06;6.70;;;6.30;;
485;SDS011;229;48.734;9.340;2023-06-14T12:59:33;7.50;;;6.70;;
485;SDS011;229;48.734;9.340;2023-06-14T13:02:10;7.70;;;6.60;;
485;SDS011;229;48.734;9.340;2023-06-14T13:04:37;7.23;;;6.30;;
485;SDS011;229;48.734;9.340;2023-06-14T13:07:04;8.87;;;6.90;;
485;SDS011;229;48.734;9.340;2023-06-14T13:09:32;10.83;;;7.03;;
485;SDS011;229;48.734;9.340;2023-06-14T13:11:59;8.57;;;6.03;;
485;SDS011;229;48.734;9.340;2023-06-14T13:14:27;7.43;;;5.80;;
485;SDS011;229;48.734;9.340;2023-06-14T13:16:55;8.67;;;5.80;;
485;SDS011;229;48.734;9.340;2023-06-14T13:19:22;8.10;;;6.23;;
485;SDS011;229;48.734;9.340;2023-06-14T13:21:49;8.03;;;6.50;;
485;SDS011;229;48.734;9.340;2023-06-14T13:24:16;8.60;;;6.30;;
485;SDS011;229;48.734;9.340;2023-06-14T13:26:43;8.87;;;5.90;;
485;SDS011;229;48.734;9.340;2023-06-14T13:29:11;6.97;;;6.57;;
485;SDS011;229;48.734;9.340;2023-06-14T13:31:39;10.00;;;6.97;;
485;SDS011;229;48.734;9.340;2023-06-14T13:34:06;8.00;;;6.10;;
485;SDS011;229;48.734;9.340;2023-06-14T13:36:33;9.20;;;6.87;;
485;SDS011;229;48.734;9.340;2023-06-14T13:39:01;6.83;;;5.80;;
485;SDS011;229;48.734;9.340;2023-06-14T13:41:28;9.93;;;6.47;;
485;SDS011;229;48.734;9.340;2023-06-14T13:43:57;6.40;;;6.00;;
485;SDS011;229;48.734;9.340;2023-06-14T13:46:24;8.67;;;6.77;;
485;SDS011;229;48.734;9.340;2023-06-14T13:48:53;10.50;;;6.27;;
485;SDS011;229;48.734;9.340;2023-06-14T13:51:20;14.43;;;7.00;;
485;SDS011;229;48.734;9.340;2023-06-14T13:53:48;10.97;;;6.20;;
485;SDS011;229;48.734;9.340;2023-06-14T13:56:16;7.33;;;5.87;;
485;SDS011;229;48.734;9.340;2023-06-14T13:58:43;8.70;;;6.27;;
485;SDS011;229;48.734;9.340;2023-06-14T14:01:10;7.37;;;6.53;;
485;SDS011;229;48.734;9.340;2023-06-14T14:03:38;8.20;;;6.73;;
485;SDS011;229;48.734;9.340;2023-06-14T14:06:06;8.80;;;6.10;;
485;SDS011;229;48.734;9.340;2023-06-14T14:08:34;8.93;;;6.30;;
485;SDS011;229;48.734;9.340;2023-06-14T14:11:02;9.77;;;5.80;;
485;SDS011;229;48.734;9.340;2023-06-14T14:13:29;8.40;;;5.90;;
485;SDS011;229;48.734;9.340;2023-06-14T14:15:56;8.37;;;6.27;;
485;SDS011;229;48.734;9.340;2023-06-14T14:18:24;10.73;;;6.80;;
485;SDS011;229;48.734;9.340;2023-06-14T14:20:51;7.23;;;6.40;;
485;SDS011;229;48.734;9.340;2023-06-14T14:23:19;9.93;;;6.40;;
485;SDS011;229;48.734;9.340;2023-06-14T14:25:47;6.97;;;6.10;;
485;SDS011;229;48.734;9.340;2023-06-14T14:28:14;11.57;;;6.80;;
485;SDS011;229;48.734;9.340;2023-06-14T14:30:43;9.73;;;6.83;;
485;SDS011;229;48.734;9.340;2023-06-14T14:33:12;13.07;;;6.80;;
485;SDS011;229;48.734;9.340;2023-06-14T14:35:41;10.13;;;7.43;;
485;SDS011;229;48.734;9.340;2023-06-14T14:38:08;11.93;;;6.90;;
485;SDS011;229;48.734;9.340;2023-06-14T14:40:37;9.60;;;6.70;;
485;SDS011;229;48.734;9.340;2023-06-14T14:43:04;7.13;;;5.90;;
485;SDS011;229;48.734;9.340;2023-06-14T14:45:31;9.80;;;6.37;;
485;SDS011;229;48.734;9.340;2023-06-14T14:48:00;8.50;;;6.30;;
485;SDS011;229;48.734;9.340;2023-06-14T14:50:27;6.70;;;5.90;;
485;SDS011;229;48.734;9.340;2023-06-14T14:52:54;9.13;;;6.53;;
485;SDS011;229;48.734;9.340;2023-06-14T14:55:22;11.50;;;7.00;;
485;SDS011;229;48.734;9.340;2023-06-14T14:57:50;9.63;;;6.90;;
485;SDS011;229;48.734;9.340;2023-06-14T15:00:18;6.90;;;6.00;;
485;SDS011;229;48.734;9.340;2023-06-14T15:02:45;6.77;;;6.23;;
485;SDS011;229;48.734;9.340;2023-06-14T15:05:12;7.10;;;6.70;;
485;SDS011;229;48.734;9.340;2023-06-14T15:07:39;8.17;;;6.40;;
485;SDS011;229;48.734;9.340;2023-06-14T15:10:07;8.30;;;7.00;;
485;SDS011;229;48.734;9.340;2023-06-14T15:12:34;8.03;;;6.57;;
485;SDS011;229;48.734;9.340;2023-06-14T15:15:03;8.90;;;7.10;;
485;SDS011;229;48.734;9.340;2023-06-14T15:17:31;7.30;;;6.90;;
485;SDS011;229;48.734;9.340;2023-06-14T15:19:58;7.07;;;6.67;;
485;SDS011;229;48.734;9.340;2023-06-14T15:22:25;7.70;;;6.80;;
485;SDS011;229;48.734;9.340;2023-06-14T15:24:52;10.43;;;6.53;;
485;SDS011;229;48.734;9.340;2023-06-14T15:27:19;8.80;;;6.47;;
485;SDS011;229;48.734;9.340;2023-06-14T15:29:47;7.20;;;6.20;;
485;SDS011;229;48.734;9.340;2023-06-14T15:32:15;6.83;;;6.17;;
485;SDS011;229;48.734;9.340;2023-06-14T15:34:42;7.20;;;6.70;;
485;SDS011;229;48.734;9.340;2023-06-14T15:37:10;7.87;;;7.00;;
485;SDS011;229;48.734;9.340;2023-06-14T15:39:37;7.23;;;6.83;;
485;SDS011;229;48.734;9.340;2023-06-14T15:42:04;6.77;;;6.40;;
485;SDS011;229;48.734;9.340;2023-06-14T15:44:32;9.70;;;5.60;;
485;SDS011;229;48.734;9.340;2023-06-14T15:47:01;7.20;;;5.50;;
485;SDS011;229;48.734;9.340;2023-06-14T15:49:29;9.33;;;6.23;;